sensor_id;sensor_type;location;lat;lon;timestamp;P1;durP1;ratioP1;P2;durP2;ratioP2
8060;SDS011;4073;42.626;25.386;2023-06-26T00:01:15;8.30;;;4.93;;
8060;SDS011;4073;42.626;25.386;2023-06-26T00:03:40;5.30;;;4.73;;
8060;SDS011;4073;42.626;25.386;2023-06-26T00:06:06;6.73;;;5.40;;
8060;SDS011;4073;42.626;25.386;2023-06-26T00:08:31;7.67;;;4.97;;
8060;SDS011;4073;42.626;25.386;2023-06-26T00:10:57;8.03;;;5.60;;
8060;SDS011;4073;42.626;25.386;2023-06-26T00:13:22;6.27;;;5.50;;
8060;SDS011;4073;42.626;25.386;2023-06-26T00:15:49;6.13;;;5.53;;
8060;SDS011;4073;42.626;25.386;2023-06-26T00:18:15;9.10;;;5.63;;
8060;SDS011;4073;42.626;25.386;2023-06-26T00:20:41;7.43;;;5.53;;
8060;SDS011;4073;42.626;25.386;2023-06-26T00:23:06;10.53;;;5.30;;
8060;SDS011;4073;42.626;25.386;2023-06-26T00:25:35;8.23;;;4.80;;
8060;SDS011;4073;42.626;25.386;2023-06-26T00:28:01;6.20;;;4.87;;
8060;SDS011;4073;42.626;25.386;2023-06-26T00:30:28;5.97;;;4.20;;
8060;SDS011;4073;42.626;25.386;2023-06-26T00:32:53;8.73;;;5.27;;
8060;SDS011;4073;42.626;25.386;2023-06-26T00:35:18;5.50;;;5.00;;
8060;SDS011;4073;42.626;25.386;2023-06-26T00:37:44;8.43;;;5.00;;
8060;SDS011;4073;42.626;25.386;2023-06-26T00:40:09;5.47;;;4.37;;
8060;SDS011;4073;42.626;25.386;2023-06-26T00:42:35;5.83;;;4.40;;
8060;SDS011;4073;42.626;25.386;2023-06-26T00:45:01;4.77;;;3.30;;
8060;SDS011;4073;42.626;25.386;2023-06-26T00:47:26;4.47;;;2.63;;
8060;SDS011;4073;42.626;25.386;2023-06-26T00:49:52;2.90;;;2.60;;
8060;SDS011;4073;42.626;25.386;2023-06-26T00:52:19;5.47;;;2.87;;
8060;SDS011;4073;42.626;25.386;2023-06-26T00:54:45;5.73;;;2.93;;
8060;SDS011;4073;42.626;25.386;2023-06-26T00:57:11;2.57;;;2.37;;
8060;SDS011;4073;42.626;25.386;2023-06-26T00:59:36;4.03;;;2.80;;
8060;SDS011;4073;42.626;25.386;2023-06-26T01:02:03;5.00;;;2.87;;
8060;SDS011;4073;42.626;25.386;2023-06-26T01:04:28;4.97;;;3.00;;
8060;SDS011;4073;42.626;25.386;2023-06-26T01:06:57;3.23;;;2.47;;
8060;SDS011;4073;42.626;25.386;2023-06-26T01:09:24;3.27;;;2.67;;
8060;SDS011;4073;42.626;25.386;2023-06-26T01:11:51;3.30;;;2.90;;
8060;SDS011;4073;42.626;25.386;2023-06-26T01:14:17;3.43;;;2.73;;
8060;SDS011;4073;42.626;25.386;2023-06-26T01:16:43;4.10;;;2.60;;
8060;SDS011;4073;42.626;25.386;2023-06-26T01:19:33;4.23;;;2.63;;
8060;SDS011;4073;42.626;25.386;2023-06-26T01:22:34;3.07;;;2.73;;
8060;SDS011;4073;42.626;25.386;2023-06-26T01:27:43;3.97;;;2.83;;
8060;SDS011;4073;42.626;25.386;2023-06-26T01:30:11;8.20;;;3.07;;
8060;SDS011;4073;42.626;25.386;2023-06-26T01:32:38;2.47;;;2.23;;
8060;SDS011;4073;42.626;25.386;2023-06-26T01:35:05;4.57;;;2.80;;
8060;SDS011;4073;42.626;25.386;2023-06-26T01:37:32;3.33;;;2.37;;
8060;SDS011;4073;42.626;25.386;2023-06-26T01:39:57;3.23;;;2.57;;
8060;SDS011;4073;42.626;25.386;2023-06-26T01:42:22;2.73;;;2.50;;
8060;SDS011;4073;42.626;25.386;2023-06-26T01:44:48;3.30;;;2.73;;
8060;SDS011;4073;42.626;25.386;2023-06-26T01:47:16;5.10;;;3.10;;
8060;SDS011;4073;42.626;25.386;2023-06-26T01:49:52;2.90;;;2.70;;
8060;SDS011;4073;42.626;25.386;2023-06-26T01:52:25;6.23;;;3.77;;
8060;SDS011;4073;42.626;25.386;2023-06-26T01:55:00;4.43;;;3.20;;
8060;SDS011;4073;42.626;25.386;2023-06-26T01:57:50;4.60;;;3.17;;
8060;SDS011;4073;42.626;25.386;2023-06-26T02:00:19;3.37;;;2.93;;
8060;SDS011;4073;42.626;25.386;2023-06-26T02:02:46;3.27;;;2.97;;
8060;SDS011;4073;42.626;25.386;2023-06-26T02:05:12;4.83;;;3.27;;
8060;SDS011;4073;42.626;25.386;2023-06-26T02:07:38;4.10;;;2.90;;
8060;SDS011;4073;42.626;25.386;2023-06-26T02:10:04;6.50;;;3.70;;
8060;SDS011;4073;42.626;25.386;2023-06-26T02:12:30;6.63;;;3.43;;
8060;SDS011;4073;42.626;25.386;2023-06-26T02:14:56;5.57;;;3.57;;
8060;SDS011;4073;42.626;25.386;2023-06-26T02:17:21;5.83;;;3.57;;
8060;SDS011;4073;42.626;25.386;2023-06-26T02:19:46;3.57;;;3.27;;
8060;SDS011;4073;42.626;25.386;2023-06-26T02:22:15;4.20;;;2.90;;
8060;SDS011;4073;42.626;25.386;2023-06-26T02:24:42;4.47;;;3.10;;
8060;SDS011;4073;42.626;25.386;2023-06-26T02:27:08;3.67;;;3.27;;
8060;SDS011;4073;42.626;25.386;2023-06-26T02:29:34;3.67;;;2.83;;
8060;SDS011;4073;42.626;25.386;2023-06-26T02:32:00;3.63;;;3.03;;
8060;SDS011;4073;42.626;25.386;2023-06-26T02:34:25;6.53;;;3.37;;
8060;SDS011;4073;42.626;25.386;2023-06-26T02:36:51;4.93;;;3.20;;
8060;SDS011;4073;42.626;25.386;2023-06-26T02:39:19;6.00;;;3.53;;
8060;SDS011;4073;42.626;25.386;2023-06-26T02:41:45;6.00;;;3.70;;
8060;SDS011;4073;42.626;25.386;2023-06-26T02:44:10;4.93;;;3.60;;
8060;SDS011;4073;42.626;25.386;2023-06-26T02:46:37;7.07;;;4.40;;
8060;SDS011;4073;42.626;25.386;2023-06-26T02:49:03;5.33;;;4.17;;
8060;SDS011;4073;42.626;25.386;2023-06-26T02:51:28;8.20;;;4.90;;
8060;SDS011;4073;42.626;25.386;2023-06-26T02:53:54;4.40;;;4.00;;
8060;SDS011;4073;42.626;25.386;2023-06-26T02:56:19;8.30;;;4.73;;
8060;SDS011;4073;42.626;25.386;2023-06-26T02:58:45;4.93;;;4.43;;
8060;SDS011;4073;42.626;25.386;2023-06-26T03:01:10;6.90;;;5.03;;
8060;SDS011;4073;42.626;25.386;2023-06-26T03:03:36;5.67;;;4.47;;
8060;SDS011;4073;42.626;25.386;2023-06-26T03:06:06;6.47;;;4.83;;
8060;SDS011;4073;42.626;25.386;2023-06-26T03:08:32;5.83;;;4.40;;
8060;SDS011;4073;42.626;25.386;2023-06-26T03:10:58;7.03;;;4.93;;
8060;SDS011;4073;42.626;25.386;2023-06-26T03:13:24;6.33;;;5.17;;
8060;SDS011;4073;42.626;25.386;2023-06-26T03:15:49;9.80;;;5.53;;
8060;SDS011;4073;42.626;25.386;2023-06-26T03:18:15;6.13;;;5.50;;
8060;SDS011;4073;42.626;25.386;2023-06-26T03:20:40;10.60;;;5.67;;
8060;SDS011;4073;42.626;25.386;2023-06-26T03:23:05;6.50;;;4.37;;
8060;SDS011;4073;42.626;25.386;2023-06-26T03:25:31;7.20;;;4.97;;
8060;SDS011;4073;42.626;25.386;2023-06-26T03:27:57;7.17;;;5.00;;
8060;SDS011;4073;42.626;25.386;2023-06-26T03:30:22;7.50;;;5.17;;
8060;SDS011;4073;42.626;25.386;2023-06-26T03:32:47;6.47;;;4.60;;
8060;SDS011;4073;42.626;25.386;2023-06-26T03:35:13;7.33;;;4.93;;
8060;SDS011;4073;42.626;25.386;2023-06-26T03:37:39;6.70;;;5.00;;
8060;SDS011;4073;42.626;25.386;2023-06-26T03:40:05;5.93;;;5.33;;
8060;SDS011;4073;42.626;25.386;2023-06-26T03:42:31;8.43;;;5.43;;
8060;SDS011;4073;42.626;25.386;2023-06-26T03:44:57;7.50;;;4.30;;
8060;SDS011;4073;42.626;25.386;2023-06-26T03:47:22;5.00;;;4.50;;
8060;SDS011;4073;42.626;25.386;2023-06-26T03:49:47;8.37;;;5.43;;
8060;SDS011;4073;42.626;25.386;2023-06-26T03:52:13;7.13;;;5.10;;
8060;SDS011;4073;42.626;25.386;2023-06-26T03:54:38;9.17;;;5.33;;
8060;SDS011;4073;42.626;25.386;2023-06-26T03:57:04;6.47;;;4.80;;
8060;SDS011;4073;42.626;25.386;2023-06-26T03:59:30;9.40;;;5.03;;
8060;SDS011;4073;42.626;25.386;2023-06-26T04:01:55;10.63;;;4.83;;
8060;SDS011;4073;42.626;25.386;2023-06-26T04:04:21;8.77;;;5.10;;
8060;SDS011;4073;42.626;25.386;2023-06-26T04:06:47;8.70;;;5.13;;
8060;SDS011;4073;42.626;25.386;2023-06-26T04:09:12;5.67;;;5.00;;
8060;SDS011;4073;42.626;25.386;2023-06-26T04:11:37;6.50;;;5.37;;
8060;SDS011;4073;42.626;25.386;2023-06-26T04:14:03;6.70;;;4.80;;
8060;SDS011;4073;42.626;25.386;2023-06-26T04:16:28;8.77;;;4.67;;
8060;SDS011;4073;42.626;25.386;2023-06-26T04:18:54;6.73;;;4.93;;
8060;SDS011;4073;42.626;25.386;2023-06-26T04:21:21;9.40;;;5.90;;
8060;SDS011;4073;42.626;25.386;2023-06-26T04:23:49;7.07;;;5.33;;
8060;SDS011;4073;42.626;25.386;2023-06-26T04:26:15;6.57;;;4.33;;
8060;SDS011;4073;42.626;25.386;2023-06-26T04:28:41;6.53;;;4.73;;
8060;SDS011;4073;42.626;25.386;2023-06-26T04:31:07;7.53;;;5.20;;
8060;SDS011;4073;42.626;25.386;2023-06-26T04:33:34;6.10;;;4.57;;
8060;SDS011;4073;42.626;25.386;2023-06-26T04:36:01;7.03;;;4.33;;
8060;SDS011;4073;42.626;25.386;2023-06-26T04:38:33;4.87;;;4.00;;
8060;SDS011;4073;42.626;25.386;2023-06-26T04:40:59;6.03;;;4.00;;
8060;SDS011;4073;42.626;25.386;2023-06-26T04:43:27;5.40;;;4.23;;
8060;SDS011;4073;42.626;25.386;2023-06-26T04:45:53;4.93;;;4.10;;
8060;SDS011;4073;42.626;25.386;2023-06-26T04:48:18;4.27;;;3.90;;
8060;SDS011;4073;42.626;25.386;2023-06-26T04:50:44;8.63;;;3.77;;
8060;SDS011;4073;42.626;25.386;2023-06-26T04:53:17;4.93;;;4.13;;
8060;SDS011;4073;42.626;25.386;2023-06-26T04:55:43;5.60;;;4.00;;
8060;SDS011;4073;42.626;25.386;2023-06-26T04:58:08;4.20;;;3.73;;
8060;SDS011;4073;42.626;25.386;2023-06-26T05:00:34;4.83;;;4.37;;
8060;SDS011;4073;42.626;25.386;2023-06-26T05:03:00;7.00;;;4.13;;
8060;SDS011;4073;42.626;25.386;2023-06-26T05:05:27;8.30;;;3.67;;
8060;SDS011;4073;42.626;25.386;2023-06-26T05:07:54;6.20;;;4.07;;
8060;SDS011;4073;42.626;25.386;2023-06-26T05:10:20;6.10;;;4.33;;
8060;SDS011;4073;42.626;25.386;2023-06-26T05:12:45;6.50;;;3.53;;
8060;SDS011;4073;42.626;25.386;2023-06-26T05:15:11;5.63;;;3.40;;
8060;SDS011;4073;42.626;25.386;2023-06-26T05:17:36;4.00;;;3.40;;
8060;SDS011;4073;42.626;25.386;2023-06-26T05:20:01;5.03;;;3.30;;
8060;SDS011;4073;42.626;25.386;2023-06-26T05:22:28;5.73;;;4.20;;
8060;SDS011;4073;42.626;25.386;2023-06-26T05:24:54;5.87;;;3.30;;
8060;SDS011;4073;42.626;25.386;2023-06-26T05:27:21;4.50;;;3.60;;
8060;SDS011;4073;42.626;25.386;2023-06-26T05:29:49;3.80;;;2.97;;
8060;SDS011;4073;42.626;25.386;2023-06-26T05:32:16;4.10;;;3.30;;
8060;SDS011;4073;42.626;25.386;2023-06-26T05:34:47;3.70;;;3.37;;
8060;SDS011;4073;42.626;25.386;2023-06-26T05:37:19;4.40;;;3.40;;
8060;SDS011;4073;42.626;25.386;2023-06-26T05:39:46;3.77;;;3.13;;
8060;SDS011;4073;42.626;25.386;2023-06-26T05:42:13;4.10;;;3.57;;
8060;SDS011;4073;42.626;25.386;2023-06-26T05:44:38;3.37;;;2.73;;
8060;SDS011;4073;42.626;25.386;2023-06-26T05:47:04;8.10;;;3.47;;
8060;SDS011;4073;42.626;25.386;2023-06-26T05:49:30;5.57;;;3.47;;
8060;SDS011;4073;42.626;25.386;2023-06-26T05:51:55;4.97;;;3.37;;
8060;SDS011;4073;42.626;25.386;2023-06-26T05:54:22;7.17;;;3.53;;
8060;SDS011;4073;42.626;25.386;2023-06-26T05:56:49;7.40;;;4.13;;
8060;SDS011;4073;42.626;25.386;2023-06-26T05:59:20;5.50;;;3.77;;
8060;SDS011;4073;42.626;25.386;2023-06-26T06:01:47;4.00;;;3.40;;
8060;SDS011;4073;42.626;25.386;2023-06-26T06:04:13;4.47;;;3.00;;
8060;SDS011;4073;42.626;25.386;2023-06-26T06:06:38;6.17;;;2.87;;
8060;SDS011;4073;42.626;25.386;2023-06-26T06:09:03;4.27;;;2.73;;
8060;SDS011;4073;42.626;25.386;2023-06-26T06:11:29;3.97;;;2.83;;
8060;SDS011;4073;42.626;25.386;2023-06-26T06:13:54;3.87;;;2.40;;
8060;SDS011;4073;42.626;25.386;2023-06-26T06:16:20;4.20;;;3.20;;
8060;SDS011;4073;42.626;25.386;2023-06-26T06:18:45;5.73;;;3.07;;
8060;SDS011;4073;42.626;25.386;2023-06-26T06:21:10;2.73;;;2.53;;
8060;SDS011;4073;42.626;25.386;2023-06-26T06:23:36;3.37;;;2.60;;
8060;SDS011;4073;42.626;25.386;2023-06-26T06:26:03;4.07;;;3.07;;
8060;SDS011;4073;42.626;25.386;2023-06-26T06:28:28;5.03;;;3.30;;
8060;SDS011;4073;42.626;25.386;2023-06-26T06:30:54;3.20;;;2.90;;
8060;SDS011;4073;42.626;25.386;2023-06-26T06:33:19;5.50;;;4.63;;
8060;SDS011;4073;42.626;25.386;2023-06-26T06:35:45;5.47;;;3.87;;
8060;SDS011;4073;42.626;25.386;2023-06-26T06:38:10;6.77;;;4.50;;
8060;SDS011;4073;42.626;25.386;2023-06-26T06:40:36;5.07;;;3.97;;
8060;SDS011;4073;42.626;25.386;2023-06-26T06:43:01;6.73;;;4.50;;
8060;SDS011;4073;42.626;25.386;2023-06-26T06:45:27;5.70;;;4.30;;
8060;SDS011;4073;42.626;25.386;2023-06-26T06:47:52;5.83;;;4.73;;
8060;SDS011;4073;42.626;25.386;2023-06-26T06:50:18;9.27;;;5.23;;
8060;SDS011;4073;42.626;25.386;2023-06-26T06:52:43;6.03;;;4.30;;
8060;SDS011;4073;42.626;25.386;2023-06-26T06:55:09;7.97;;;4.50;;
8060;SDS011;4073;42.626;25.386;2023-06-26T06:57:38;5.80;;;5.20;;
8060;SDS011;4073;42.626;25.386;2023-06-26T07:00:05;8.70;;;5.00;;
8060;SDS011;4073;42.626;25.386;2023-06-26T07:02:36;6.97;;;5.50;;
8060;SDS011;4073;42.626;25.386;2023-06-26T07:05:03;6.60;;;4.70;;
8060;SDS011;4073;42.626;25.386;2023-06-26T07:07:30;7.07;;;5.23;;
8060;SDS011;4073;42.626;25.386;2023-06-26T07:09:58;6.43;;;5.33;;
8060;SDS011;4073;42.626;25.386;2023-06-26T07:12:24;7.33;;;5.37;;
8060;SDS011;4073;42.626;25.386;2023-06-26T07:14:50;7.40;;;4.83;;
8060;SDS011;4073;42.626;25.386;2023-06-26T07:17:15;8.70;;;5.70;;
8060;SDS011;4073;42.626;25.386;2023-06-26T07:19:41;7.57;;;4.97;;
8060;SDS011;4073;42.626;25.386;2023-06-26T07:22:06;6.27;;;5.17;;
8060;SDS011;4073;42.626;25.386;2023-06-26T07:24:31;5.20;;;4.57;;
8060;SDS011;4073;42.626;25.386;2023-06-26T07:26:57;6.57;;;4.93;;
8060;SDS011;4073;42.626;25.386;2023-06-26T07:29:23;5.23;;;4.63;;
8060;SDS011;4073;42.626;25.386;2023-06-26T07:31:48;5.47;;;4.67;;
8060;SDS011;4073;42.626;25.386;2023-06-26T07:34:14;9.33;;;5.93;;
8060;SDS011;4073;42.626;25.386;2023-06-26T07:36:39;6.83;;;5.40;;
8060;SDS011;4073;42.626;25.386;2023-06-26T07:39:05;8.00;;;5.70;;
8060;SDS011;4073;42.626;25.386;2023-06-26T07:41:30;6.80;;;6.00;;
8060;SDS011;4073;42.626;25.386;2023-06-26T07:43:56;6.43;;;4.43;;
8060;SDS011;4073;42.626;25.386;2023-06-26T07:46:23;6.93;;;4.23;;
8060;SDS011;4073;42.626;25.386;2023-06-26T07:48:49;6.27;;;4.60;;
8060;SDS011;4073;42.626;25.386;2023-06-26T07:51:14;6.00;;;4.10;;
8060;SDS011;4073;42.626;25.386;2023-06-26T07:53:40;4.97;;;3.90;;
8060;SDS011;4073;42.626;25.386;2023-06-26T07:56:06;4.37;;;3.80;;
8060;SDS011;4073;42.626;25.386;2023-06-26T07:58:31;4.90;;;3.37;;
8060;SDS011;4073;42.626;25.386;2023-06-26T08:00:57;5.30;;;3.10;;
8060;SDS011;4073;42.626;25.386;2023-06-26T08:03:22;3.37;;;2.53;;
8060;SDS011;4073;42.626;25.386;2023-06-26T08:05:48;3.20;;;1.90;;
8060;SDS011;4073;42.626;25.386;2023-06-26T08:08:14;3.00;;;1.57;;
8060;SDS011;4073;42.626;25.386;2023-06-26T08:10:40;2.67;;;1.70;;
8060;SDS011;4073;42.626;25.386;2023-06-26T08:13:05;2.20;;;1.87;;
8060;SDS011;4073;42.626;25.386;2023-06-26T08:15:30;2.13;;;1.80;;
8060;SDS011;4073;42.626;25.386;2023-06-26T08:17:56;1.87;;;1.60;;
8060;SDS011;4073;42.626;25.386;2023-06-26T08:20:21;3.33;;;2.20;;
8060;SDS011;4073;42.626;25.386;2023-06-26T08:22:47;2.77;;;1.60;;
8060;SDS011;4073;42.626;25.386;2023-06-26T08:25:16;1.83;;;1.30;;
8060;SDS011;4073;42.626;25.386;2023-06-26T08:27:42;1.83;;;1.70;;
8060;SDS011;4073;42.626;25.386;2023-06-26T08:30:07;2.73;;;2.43;;
8060;SDS011;4073;42.626;25.386;2023-06-26T08:32:33;2.63;;;1.57;;
8060;SDS011;4073;42.626;25.386;2023-06-26T08:34:59;1.90;;;1.27;;
8060;SDS011;4073;42.626;25.386;2023-06-26T08:37:24;1.43;;;1.10;;
8060;SDS011;4073;42.626;25.386;2023-06-26T08:39:50;3.67;;;1.60;;
8060;SDS011;4073;42.626;25.386;2023-06-26T08:42:15;1.77;;;1.47;;
8060;SDS011;4073;42.626;25.386;2023-06-26T08:44:41;1.93;;;1.77;;
8060;SDS011;4073;42.626;25.386;2023-06-26T08:47:06;2.23;;;1.90;;
8060;SDS011;4073;42.626;25.386;2023-06-26T08:49:34;2.00;;;1.80;;
8060;SDS011;4073;42.626;25.386;2023-06-26T08:52:28;1.50;;;1.40;;
8060;SDS011;4073;42.626;25.386;2023-06-26T08:54:59;1.57;;;1.40;;
8060;SDS011;4073;42.626;25.386;2023-06-26T08:57:27;1.80;;;1.70;;
8060;SDS011;4073;42.626;25.386;2023-06-26T08:59:55;2.30;;;2.10;;
8060;SDS011;4073;42.626;25.386;2023-06-26T09:02:21;2.90;;;1.60;;
8060;SDS011;4073;42.626;25.386;2023-06-26T09:04:47;2.43;;;1.63;;
8060;SDS011;4073;42.626;25.386;2023-06-26T09:07:14;2.57;;;2.37;;
8060;SDS011;4073;42.626;25.386;2023-06-26T09:09:40;2.70;;;2.50;;
8060;SDS011;4073;42.626;25.386;2023-06-26T09:12:05;3.57;;;2.70;;
8060;SDS011;4073;42.626;25.386;2023-06-26T09:14:31;2.67;;;2.37;;
8060;SDS011;4073;42.626;25.386;2023-06-26T09:16:57;2.33;;;2.13;;
8060;SDS011;4073;42.626;25.386;2023-06-26T09:19:22;3.00;;;2.10;;
8060;SDS011;4073;42.626;25.386;2023-06-26T09:21:49;4.93;;;2.40;;
8060;SDS011;4073;42.626;25.386;2023-06-26T09:24:16;3.37;;;2.20;;
8060;SDS011;4073;42.626;25.386;2023-06-26T09:26:42;2.40;;;1.90;;
8060;SDS011;4073;42.626;25.386;2023-06-26T09:29:08;2.40;;;2.20;;
8060;SDS011;4073;42.626;25.386;2023-06-26T09:31:37;3.47;;;2.13;;
8060;SDS011;4073;42.626;25.386;2023-06-26T09:34:03;2.97;;;2.33;;
8060;SDS011;4073;42.626;25.386;2023-06-26T09:36:30;2.37;;;2.17;;
8060;SDS011;4073;42.626;25.386;2023-06-26T09:39:01;3.57;;;2.20;;
8060;SDS011;4073;42.626;25.386;2023-06-26T09:41:29;4.07;;;2.53;;
8060;SDS011;4073;42.626;25.386;2023-06-26T09:43:57;2.40;;;2.20;;
8060;SDS011;4073;42.626;25.386;2023-06-26T09:46:27;2.70;;;2.20;;
8060;SDS011;4073;42.626;25.386;2023-06-26T09:49:01;2.43;;;1.90;;
8060;SDS011;4073;42.626;25.386;2023-06-26T09:51:29;2.67;;;2.17;;
8060;SDS011;4073;42.626;25.386;2023-06-26T09:53:56;3.20;;;2.10;;
8060;SDS011;4073;42.626;25.386;2023-06-26T09:56:21;3.00;;;2.10;;
8060;SDS011;4073;42.626;25.386;2023-06-26T09:58:47;2.10;;;1.87;;
8060;SDS011;4073;42.626;25.386;2023-06-26T10:01:14;3.70;;;1.97;;
8060;SDS011;4073;42.626;25.386;2023-06-26T10:03:39;2.70;;;1.93;;
8060;SDS011;4073;42.626;25.386;2023-06-26T10:06:05;2.30;;;2.10;;
8060;SDS011;4073;42.626;25.386;2023-06-26T10:08:32;2.97;;;2.13;;
8060;SDS011;4073;42.626;25.386;2023-06-26T10:11:02;2.20;;;2.00;;
8060;SDS011;4073;42.626;25.386;2023-06-26T10:13:29;2.50;;;2.30;;
8060;SDS011;4073;42.626;25.386;2023-06-26T10:15:58;3.30;;;2.20;;
8060;SDS011;4073;42.626;25.386;2023-06-26T10:18:25;1.70;;;1.60;;
8060;SDS011;4073;42.626;25.386;2023-06-26T10:20:53;2.47;;;1.53;;
8060;SDS011;4073;42.626;25.386;2023-06-26T10:23:22;2.00;;;1.70;;
8060;SDS011;4073;42.626;25.386;2023-06-26T10:25:48;2.20;;;2.00;;
8060;SDS011;4073;42.626;25.386;2023-06-26T10:28:17;2.03;;;1.90;;
8060;SDS011;4073;42.626;25.386;2023-06-26T10:30:46;1.63;;;1.53;;
8060;SDS011;4073;42.626;25.386;2023-06-26T10:33:13;1.60;;;1.50;;
8060;SDS011;4073;42.626;25.386;2023-06-26T10:35:44;2.10;;;1.90;;
8060;SDS011;4073;42.626;25.386;2023-06-26T10:38:10;2.37;;;2.17;;
8060;SDS011;4073;42.626;25.386;2023-06-26T10:40:43;2.77;;;2.57;;
8060;SDS011;4073;42.626;25.386;2023-06-26T10:43:10;4.73;;;2.17;;
8060;SDS011;4073;42.626;25.386;2023-06-26T10:45:47;7.07;;;3.53;;
8060;SDS011;4073;42.626;25.386;2023-06-26T10:48:19;4.83;;;2.73;;
8060;SDS011;4073;42.626;25.386;2023-06-26T10:50:48;3.57;;;2.70;;
8060;SDS011;4073;42.626;25.386;2023-06-26T10:55:43;2.67;;;2.47;;
8060;SDS011;4073;42.626;25.386;2023-06-26T10:58:29;2.83;;;2.50;;
8060;SDS011;4073;42.626;25.386;2023-06-26T11:01:23;3.00;;;2.70;;
8060;SDS011;4073;42.626;25.386;2023-06-26T11:06:23;3.93;;;2.90;;
8060;SDS011;4073;42.626;25.386;2023-06-26T11:08:50;3.93;;;3.30;;
8060;SDS011;4073;42.626;25.386;2023-06-26T11:11:21;6.30;;;3.20;;
8060;SDS011;4073;42.626;25.386;2023-06-26T11:14:05;3.53;;;3.23;;
8060;SDS011;4073;42.626;25.386;2023-06-26T11:16:31;3.30;;;3.00;;
8060;SDS011;4073;42.626;25.386;2023-06-26T11:18:58;3.53;;;3.10;;
8060;SDS011;4073;42.626;25.386;2023-06-26T11:21:23;3.37;;;2.83;;
8060;SDS011;4073;42.626;25.386;2023-06-26T11:23:49;3.73;;;3.43;;
8060;SDS011;4073;42.626;25.386;2023-06-26T11:26:17;4.30;;;3.40;;
8060;SDS011;4073;42.626;25.386;2023-06-26T11:28:53;3.10;;;2.80;;
8060;SDS011;4073;42.626;25.386;2023-06-26T11:31:23;4.63;;;3.40;;
8060;SDS011;4073;42.626;25.386;2023-06-26T11:33:56;3.90;;;3.50;;
8060;SDS011;4073;42.626;25.386;2023-06-26T11:36:24;4.03;;;3.23;;
8060;SDS011;4073;42.626;25.386;2023-06-26T11:39:00;4.23;;;3.60;;
8060;SDS011;4073;42.626;25.386;2023-06-26T11:41:30;6.20;;;3.00;;
8060;SDS011;4073;42.626;25.386;2023-06-26T11:44:00;4.70;;;3.17;;
8060;SDS011;4073;42.626;25.386;2023-06-26T11:46:29;5.70;;;3.83;;
8060;SDS011;4073;42.626;25.386;2023-06-26T11:48:55;5.23;;;3.67;;
8060;SDS011;4073;42.626;25.386;2023-06-26T11:51:21;4.37;;;4.07;;
8060;SDS011;4073;42.626;25.386;2023-06-26T11:53:47;6.60;;;3.63;;
8060;SDS011;4073;42.626;25.386;2023-06-26T11:56:13;6.70;;;4.10;;
8060;SDS011;4073;42.626;25.386;2023-06-26T12:04:11;5.60;;;3.77;;
8060;SDS011;4073;42.626;25.386;2023-06-26T12:06:40;5.27;;;3.53;;
8060;SDS011;4073;42.626;25.386;2023-06-26T12:09:08;3.97;;;3.53;;
8060;SDS011;4073;42.626;25.386;2023-06-26T12:11:36;5.23;;;4.00;;
8060;SDS011;4073;42.626;25.386;2023-06-26T12:14:05;5.80;;;3.23;;
8060;SDS011;4073;42.626;25.386;2023-06-26T12:16:31;5.47;;;4.10;;
8060;SDS011;4073;42.626;25.386;2023-06-26T12:19:02;7.23;;;4.70;;
8060;SDS011;4073;42.626;25.386;2023-06-26T12:24:09;6.50;;;4.23;;
8060;SDS011;4073;42.626;25.386;2023-06-26T12:26:38;5.93;;;3.77;;
8060;SDS011;4073;42.626;25.386;2023-06-26T12:29:10;5.97;;;4.63;;
8060;SDS011;4073;42.626;25.386;2023-06-26T12:31:41;8.77;;;4.50;;
8060;SDS011;4073;42.626;25.386;2023-06-26T12:34:11;4.47;;;3.93;;
8060;SDS011;4073;42.626;25.386;2023-06-26T12:36:40;6.90;;;3.90;;
8060;SDS011;4073;42.626;25.386;2023-06-26T12:39:15;4.90;;;4.00;;
8060;SDS011;4073;42.626;25.386;2023-06-26T12:44:40;4.40;;;4.00;;
8060;SDS011;4073;42.626;25.386;2023-06-26T12:47:06;5.00;;;3.70;;
8060;SDS011;4073;42.626;25.386;2023-06-26T12:49:36;4.47;;;3.90;;
8060;SDS011;4073;42.626;25.386;2023-06-26T12:52:03;4.70;;;4.30;;
8060;SDS011;4073;42.626;25.386;2023-06-26T12:54:29;4.87;;;4.37;;
8060;SDS011;4073;42.626;25.386;2023-06-26T12:56:55;4.63;;;3.83;;
8060;SDS011;4073;42.626;25.386;2023-06-26T12:59:21;4.73;;;3.67;;
8060;SDS011;4073;42.626;25.386;2023-06-26T13:01:46;5.67;;;4.20;;
8060;SDS011;4073;42.626;25.386;2023-06-26T13:04:12;4.93;;;4.10;;
8060;SDS011;4073;42.626;25.386;2023-06-26T13:06:38;4.20;;;3.80;;
8060;SDS011;4073;42.626;25.386;2023-06-26T13:09:03;4.10;;;3.70;;
8060;SDS011;4073;42.626;25.386;2023-06-26T13:11:29;5.43;;;3.60;;
8060;SDS011;4073;42.626;25.386;2023-06-26T13:13:55;5.37;;;4.03;;
8060;SDS011;4073;42.626;25.386;2023-06-26T13:16:21;5.57;;;3.43;;
8060;SDS011;4073;42.626;25.386;2023-06-26T13:18:47;5.00;;;4.13;;
8060;SDS011;4073;42.626;25.386;2023-06-26T13:21:13;5.77;;;4.83;;
8060;SDS011;4073;42.626;25.386;2023-06-26T13:23:39;4.30;;;3.33;;
8060;SDS011;4073;42.626;25.386;2023-06-26T13:26:05;6.03;;;3.83;;
8060;SDS011;4073;42.626;25.386;2023-06-26T13:28:31;6.80;;;4.13;;
8060;SDS011;4073;42.626;25.386;2023-06-26T13:30:56;5.63;;;4.07;;
8060;SDS011;4073;42.626;25.386;2023-06-26T13:33:22;4.50;;;3.53;;
8060;SDS011;4073;42.626;25.386;2023-06-26T13:35:50;5.33;;;3.70;;
8060;SDS011;4073;42.626;25.386;2023-06-26T13:38:19;7.57;;;3.87;;
8060;SDS011;4073;42.626;25.386;2023-06-26T13:40:49;6.07;;;3.80;;
8060;SDS011;4073;42.626;25.386;2023-06-26T13:43:16;4.80;;;3.90;;
8060;SDS011;4073;42.626;25.386;2023-06-26T13:45:41;4.83;;;3.73;;
8060;SDS011;4073;42.626;25.386;2023-06-26T13:48:07;4.50;;;4.10;;
8060;SDS011;4073;42.626;25.386;2023-06-26T13:50:32;5.57;;;3.83;;
8060;SDS011;4073;42.626;25.386;2023-06-26T13:52:57;5.97;;;3.90;;
8060;SDS011;4073;42.626;25.386;2023-06-26T13:55:23;4.10;;;3.60;;
8060;SDS011;4073;42.626;25.386;2023-06-26T13:57:48;6.27;;;3.47;;
8060;SDS011;4073;42.626;25.386;2023-06-26T14:00:14;4.37;;;3.40;;
8060;SDS011;4073;42.626;25.386;2023-06-26T14:02:44;4.63;;;3.57;;
8060;SDS011;4073;42.626;25.386;2023-06-26T14:05:10;4.13;;;3.50;;
8060;SDS011;4073;42.626;25.386;2023-06-26T14:07:36;4.30;;;3.07;;
8060;SDS011;4073;42.626;25.386;2023-06-26T14:10:03;3.73;;;3.40;;
8060;SDS011;4073;42.626;25.386;2023-06-26T14:12:30;5.13;;;3.57;;
8060;SDS011;4073;42.626;25.386;2023-06-26T14:14:55;3.90;;;3.23;;
8060;SDS011;4073;42.626;25.386;2023-06-26T14:17:21;3.57;;;3.27;;
8060;SDS011;4073;42.626;25.386;2023-06-26T14:19:49;4.37;;;3.23;;
8060;SDS011;4073;42.626;25.386;2023-06-26T14:22:15;4.03;;;3.63;;
8060;SDS011;4073;42.626;25.386;2023-06-26T14:24:40;5.87;;;4.20;;
8060;SDS011;4073;42.626;25.386;2023-06-26T14:27:06;4.97;;;3.10;;
8060;SDS011;4073;42.626;25.386;2023-06-26T14:29:31;4.10;;;3.63;;
8060;SDS011;4073;42.626;25.386;2023-06-26T14:31:57;5.10;;;3.70;;
8060;SDS011;4073;42.626;25.386;2023-06-26T14:34:22;5.13;;;3.43;;
8060;SDS011;4073;42.626;25.386;2023-06-26T14:36:48;3.67;;;3.33;;
8060;SDS011;4073;42.626;25.386;2023-06-26T14:39:13;6.33;;;3.53;;
8060;SDS011;4073;42.626;25.386;2023-06-26T14:41:39;3.60;;;3.30;;
8060;SDS011;4073;42.626;25.386;2023-06-26T14:44:04;5.37;;;4.17;;
8060;SDS011;4073;42.626;25.386;2023-06-26T14:46:33;4.00;;;3.40;;
8060;SDS011;4073;42.626;25.386;2023-06-26T14:48:58;5.93;;;2.97;;
8060;SDS011;4073;42.626;25.386;2023-06-26T14:51:23;3.03;;;2.07;;
8060;SDS011;4073;42.626;25.386;2023-06-26T14:53:50;2.43;;;1.47;;
8060;SDS011;4073;42.626;25.386;2023-06-26T14:56:16;1.17;;;1.03;;
8060;SDS011;4073;42.626;25.386;2023-06-26T14:58:41;4.00;;;1.43;;
8060;SDS011;4073;42.626;25.386;2023-06-26T15:01:07;1.40;;;1.20;;
8060;SDS011;4073;42.626;25.386;2023-06-26T15:03:33;1.30;;;1.20;;
8060;SDS011;4073;42.626;25.386;2023-06-26T15:05:59;1.33;;;1.10;;
8060;SDS011;4073;42.626;25.386;2023-06-26T15:08:24;1.70;;;1.27;;
8060;SDS011;4073;42.626;25.386;2023-06-26T15:10:50;4.20;;;1.20;;
8060;SDS011;4073;42.626;25.386;2023-06-26T15:13:15;0.90;;;0.90;;
8060;SDS011;4073;42.626;25.386;2023-06-26T15:15:41;1.80;;;1.30;;
8060;SDS011;4073;42.626;25.386;2023-06-26T15:18:07;2.37;;;1.40;;